Annapolis Junction, Maryland
Current Conditions -  °F | °C
As of 1:36 AM on Sunday 21 Dec 2014 (Local Time) from KFME Reporting Station
Overcast Overcast  
Wind Chill: 30°   Ceiling: 8000
Heat Index: 30°   Visibility: 10mi
Dew Point: 27°   Wind: 0mph
Humidity: 86%   Direction: NA
Pressure: 30.32"   Gusts: NA
Location:  39.13°N, 76.8°W
Report Text: KFME 210636Z AUTO 00000KT 10SM OVC080 M01/M03 A3032 RMK AO1
Loading
Personal Weather Stations






























Interactive Weather Map New forecast layout! Learn more

10-Day Weather Forecast

Advertisements
Track Severe Weather on mobile